createdAt,value
2019-04-03T00:00:34.435Z,12.03
2019-04-03T00:03:04.870Z,11.73
2019-04-03T00:05:45.647Z,12.13
2019-04-03T00:08:39.626Z,12.57
2019-04-03T00:11:35.293Z,12.67
2019-04-03T00:14:07.508Z,14.23
2019-04-03T00:16:45.981Z,13.17
2019-04-03T00:19:22.477Z,13.43
2019-04-03T00:22:08.978Z,14.27
2019-04-03T00:24:46.377Z,14.17
2019-04-03T00:27:14.230Z,14.40
2019-04-03T00:30:06.052Z,14.30
2019-04-03T00:32:26.012Z,14.30
2019-04-03T00:35:05.830Z,14.63
2019-04-03T00:37:37.227Z,14.60
2019-04-03T00:40:14.004Z,15.40
2019-04-03T00:42:47.411Z,15.07
2019-04-03T00:46:03.473Z,14.60
2019-04-03T00:49:02.814Z,15.37
2019-04-03T00:51:33.789Z,14.97
2019-04-03T00:54:07.930Z,14.53
2019-04-03T00:56:48.491Z,15.43
2019-04-03T00:59:21.830Z,14.73
2019-04-03T01:01:56.058Z,15.20
2019-04-03T01:04:54.172Z,15.43
2019-04-03T01:07:23.384Z,14.93
2019-04-03T01:10:01.597Z,15.53
2019-04-03T01:12:35.327Z,15.20
2019-04-03T01:15:22.544Z,15.17
2019-04-03T01:17:58.929Z,14.50
2019-04-03T01:20:32.321Z,14.57
2019-04-03T01:23:07.743Z,14.90
2019-04-03T01:25:48.673Z,15.20
2019-04-03T01:28:36.823Z,14.80
2019-04-03T01:31:17.528Z,14.60
2019-04-03T01:33:47.151Z,14.97
2019-04-03T01:36:17.639Z,14.57
2019-04-03T01:38:49.717Z,13.63
2019-04-03T01:41:21.149Z,14.73
2019-04-03T01:43:53.152Z,14.13
2019-04-03T01:48:52.726Z,12.63
2019-04-03T01:51:21.544Z,13.00
2019-04-03T01:53:50.402Z,13.60
2019-04-03T01:56:50.130Z,12.40
2019-04-03T01:59:21.790Z,13.17
2019-04-03T02:01:58.103Z,13.67
2019-04-03T02:05:06.888Z,12.80
2019-04-03T02:07:35.998Z,11.63
2019-04-03T02:10:05.532Z,12.30
2019-04-03T02:12:35.701Z,12.63
2019-04-03T02:15:04.992Z,12.80
2019-04-03T02:17:33.858Z,12.10
2019-04-03T02:20:04.488Z,11.30
2019-04-03T02:22:34.134Z,10.93
2019-04-03T02:25:04.742Z,11.13
2019-04-03T02:27:42.555Z,11.50
2019-04-03T02:30:27.763Z,11.07
2019-04-03T02:36:12.740Z,11.33
2019-04-03T02:39:00.051Z,11.27
2019-04-03T02:41:35.340Z,11.20
2019-04-03T02:44:04.016Z,10.77
2019-04-03T02:46:42.332Z,10.90
2019-04-03T02:49:15.219Z,10.70
2019-04-03T02:52:11.072Z,10.23
2019-04-03T02:54:50.778Z,10.03
2019-04-03T02:57:25.965Z,10.27
2019-04-03T03:00:14.851Z,9.90
2019-04-03T03:03:06.313Z,10.10
2019-04-03T03:05:45.978Z,10.33
2019-04-03T03:08:22.727Z,10.77
2019-04-03T03:11:13.504Z,9.60
2019-04-03T03:13:44.047Z,10.77
2019-04-03T03:16:20.654Z,9.90
2019-04-03T03:19:00.245Z,9.53
2019-04-03T03:21:32.680Z,9.50
2019-04-03T03:24:18.091Z,9.97
2019-04-03T03:26:39.612Z,10.33
2019-04-03T03:29:18.615Z,10.00
2019-04-03T03:32:15.037Z,9.60
2019-04-03T03:34:49.524Z,9.97
2019-04-03T03:37:12.066Z,9.97
2019-04-03T03:40:00.742Z,9.63
2019-04-03T03:42:32.205Z,10.40
2019-04-03T03:45:06.566Z,10.37
2019-04-03T03:50:34.133Z,9.97
2019-04-03T03:53:10.258Z,10.43
2019-04-03T03:55:45.591Z,10.30
2019-04-03T03:58:25.615Z,9.77
2019-04-03T04:01:00.256Z,10.83
2019-04-03T04:03:32.685Z,10.63
2019-04-03T04:06:04.779Z,10.37
2019-04-03T04:08:35.507Z,10.87
2019-04-03T04:11:04.414Z,10.47
2019-04-03T04:13:34.742Z,11.00
2019-04-03T04:16:19.709Z,10.20
2019-04-03T04:18:59.240Z,10.97
2019-04-03T04:21:31.366Z,10.73
2019-04-03T04:24:09.124Z,9.97
2019-04-03T04:26:46.192Z,10.73
2019-04-03T04:29:16.534Z,10.33
2019-04-03T04:31:46.238Z,9.87
2019-04-03T04:34:18.290Z,10.43
2019-04-03T04:36:46.759Z,10.40
2019-04-03T04:39:20.071Z,11.10
2019-04-03T04:41:50.960Z,11.53
2019-04-03T04:44:29.799Z,10.60
2019-04-03T04:46:59.562Z,9.97
2019-04-03T04:49:28.490Z,9.83
2019-04-03T04:52:01.780Z,10.33
2019-04-03T04:54:31.709Z,10.77
2019-04-03T04:57:05.426Z,9.90
2019-04-03T04:59:37.062Z,9.63
2019-04-03T05:02:21.457Z,10.23
2019-04-03T05:04:51.034Z,9.87
2019-04-03T05:07:20.327Z,9.40
2019-04-03T05:09:49.153Z,10.13
2019-04-03T05:12:18.243Z,10.30
2019-04-03T05:14:49.493Z,9.63
2019-04-03T05:17:21.630Z,9.50
2019-04-03T05:19:53.478Z,9.70
2019-04-03T05:22:23.997Z,8.80
2019-04-03T05:27:46.944Z,8.87
2019-04-03T05:30:32.233Z,9.00
2019-04-03T05:33:03.396Z,8.60
2019-04-03T05:35:34.732Z,8.97
2019-04-03T05:38:07.935Z,9.30
2019-04-03T05:40:40.750Z,8.07
2019-04-03T05:43:09.842Z,8.33
2019-04-03T05:45:43.283Z,8.00
2019-04-03T05:48:16.843Z,8.33
2019-04-03T05:50:43.756Z,7.87
2019-04-03T05:53:12.921Z,8.33
2019-04-03T06:13:48.860Z,7.50
2019-04-03T06:16:17.981Z,8.20
2019-04-03T06:18:47.642Z,8.40
2019-04-03T06:21:20.125Z,8.40
2019-04-03T06:24:12.847Z,9.40
2019-04-03T06:27:23.921Z,9.63
2019-04-03T06:30:00.880Z,10.97
2019-04-03T06:32:33.219Z,11.20
2019-04-03T06:35:13.279Z,11.90
2019-04-03T06:38:06.514Z,12.77
2019-04-03T06:43:17.853Z,15.30
2019-04-03T06:45:45.866Z,15.33
2019-04-03T06:48:22.039Z,15.37
2019-04-03T06:50:54.272Z,15.90
2019-04-03T06:53:30.159Z,16.50
2019-04-03T06:56:20.357Z,17.23
2019-04-03T06:58:54.453Z,17.43
2019-04-03T07:01:24.276Z,16.80
2019-04-03T07:03:54.790Z,18.23
2019-04-03T07:06:25.955Z,17.60
2019-04-03T07:09:07.552Z,18.03
2019-04-03T07:11:36.561Z,19.23
2019-04-03T07:14:12.496Z,18.33
2019-04-03T07:16:44.397Z,17.57
2019-04-03T07:19:13.432Z,17.63
2019-04-03T07:21:42.888Z,19.23
2019-04-03T07:24:20.398Z,19.87
2019-04-03T07:29:57.235Z,17.63
2019-04-03T07:32:47.490Z,18.60
2019-04-03T07:35:40.214Z,17.50
2019-04-03T07:38:09.065Z,17.80
2019-04-03T07:40:45.784Z,18.37
2019-04-03T07:43:14.779Z,18.80
2019-04-03T07:45:45.987Z,17.40
2019-04-03T07:48:39.776Z,16.97
2019-04-03T07:51:31.895Z,17.53
2019-04-03T07:54:04.333Z,16.83
2019-04-03T07:56:34.291Z,16.27
2019-04-03T08:01:44.539Z,15.57
2019-04-03T08:04:15.879Z,16.07
2019-04-03T08:06:47.371Z,16.70
2019-04-03T08:09:16.189Z,16.10
2019-04-03T08:11:45.908Z,15.80
2019-04-03T08:14:14.790Z,16.20
2019-04-03T08:16:45.938Z,16.40
2019-04-03T08:19:18.293Z,16.40
2019-04-03T08:22:08.142Z,15.80
2019-04-03T08:47:10.241Z,18.17
2019-04-03T08:50:03.004Z,17.90
2019-04-03T08:52:34.828Z,18.50
2019-04-03T08:55:15.941Z,18.63
2019-04-03T08:57:51.894Z,18.50
2019-04-03T09:02:56.283Z,20.60
2019-04-03T09:05:27.692Z,21.83
2019-04-03T09:07:57.512Z,20.63
2019-04-03T09:10:29.896Z,21.37
2019-04-03T09:13:00.240Z,21.60
2019-04-03T09:15:29.185Z,21.37
2019-04-03T09:17:58.565Z,22.63
2019-04-03T09:20:28.988Z,23.13
2019-04-03T09:22:59.463Z,22.93
2019-04-03T09:25:29.820Z,22.80
2019-04-03T09:28:06.188Z,22.10
2019-04-03T09:30:37.073Z,23.40
2019-04-03T09:33:12.525Z,22.40
2019-04-03T09:36:04.560Z,23.20
2019-04-03T09:38:36.006Z,22.23
2019-04-03T09:41:07.299Z,22.57
2019-04-03T09:43:42.069Z,23.07
2019-04-03T09:46:12.833Z,22.20
2019-04-03T09:49:05.766Z,22.37
2019-04-03T09:51:35.391Z,22.50
2019-04-03T09:54:04.452Z,22.53
2019-04-03T09:56:36.496Z,21.07
2019-04-03T10:01:49.374Z,20.80
2019-04-03T10:04:21.485Z,20.07
2019-04-03T10:06:50.773Z,20.17
2019-04-03T10:09:32.223Z,19.70
2019-04-03T10:12:22.705Z,19.17
2019-04-03T10:14:54.029Z,18.67
2019-04-03T10:17:41.596Z,17.87
2019-04-03T10:20:11.514Z,17.67
2019-04-03T10:22:40.569Z,17.00
2019-04-03T10:25:09.806Z,16.50
2019-04-03T10:27:48.243Z,16.27
2019-04-03T10:30:20.193Z,15.63
2019-04-03T10:35:47.432Z,15.87
2019-04-03T10:38:24.930Z,15.27
2019-04-03T10:41:01.372Z,14.60
2019-04-03T10:43:30.488Z,14.30
2019-04-03T10:46:01.118Z,14.63
2019-04-03T10:48:30.395Z,12.90
2019-04-03T10:51:01.983Z,13.37
2019-04-03T10:53:30.997Z,12.20
2019-04-03T11:53:40.466Z,7.23
2019-04-03T11:56:13.270Z,7.30
2019-04-03T11:59:12.164Z,6.97
2019-04-03T12:01:42.093Z,7.00
2019-04-03T12:04:12.681Z,6.53
2019-04-03T12:06:43.349Z,5.97
2019-04-03T12:09:12.825Z,6.70
2019-04-03T12:11:42.256Z,5.90
2019-04-03T12:14:17.123Z,5.73
2019-04-03T12:16:48.561Z,5.67
2019-04-03T12:19:18.660Z,5.80
2019-04-03T12:21:49.765Z,5.67
2019-04-03T12:24:21.992Z,5.50
2019-04-03T12:26:56.418Z,5.70
2019-04-03T12:29:27.959Z,5.60
2019-04-03T12:31:59.154Z,5.80
2019-04-03T12:34:32.016Z,6.03
2019-04-03T12:37:00.916Z,6.37
2019-04-03T12:39:33.158Z,7.07
2019-04-03T12:42:09.619Z,7.10
2019-04-03T12:44:43.222Z,8.07
2019-04-03T12:47:13.701Z,8.37
2019-04-03T12:49:49.079Z,8.47
2019-04-03T12:52:19.133Z,8.50
2019-04-03T12:54:59.624Z,9.37
2019-04-03T12:57:32.330Z,10.40
2019-04-03T13:00:18.169Z,11.20
2019-04-03T13:02:51.265Z,12.30
2019-04-03T13:05:23.281Z,13.10
2019-04-03T13:07:56.039Z,12.97
2019-04-03T13:10:39.216Z,14.43
2019-04-03T13:13:01.447Z,15.17
2019-04-03T13:15:37.108Z,15.70
2019-04-03T13:18:32.178Z,15.90
2019-04-03T13:21:13.103Z,16.80
2019-04-03T13:23:33.446Z,18.13
2019-04-03T13:26:07.407Z,18.53
2019-04-03T13:28:40.943Z,19.37
2019-04-03T13:31:14.458Z,19.20
2019-04-03T13:33:55.607Z,20.07
2019-04-03T13:36:30.038Z,22.13
2019-04-03T13:39:12.758Z,20.73
2019-04-03T13:41:48.209Z,21.83
2019-04-03T13:44:20.669Z,22.00
2019-04-03T13:46:54.172Z,22.83
2019-04-03T13:49:29.751Z,22.90
2019-04-03T13:52:09.983Z,23.37
2019-04-03T13:54:45.375Z,21.63
2019-04-03T13:57:28.593Z,23.07
2019-04-03T14:00:01.744Z,22.87
2019-04-03T14:02:32.322Z,23.30
2019-04-03T14:05:12.052Z,22.30
2019-04-03T14:07:42.616Z,22.10
2019-04-03T14:10:29.674Z,22.10
2019-04-03T14:12:58.964Z,21.03
2019-04-03T14:15:28.114Z,21.63
2019-04-03T14:18:02.904Z,21.10
2019-04-03T14:20:35.320Z,21.50
2019-04-03T14:23:05.406Z,20.73
2019-04-03T14:25:38.011Z,21.53
2019-04-03T14:28:10.553Z,19.60
2019-04-03T14:30:40.020Z,20.00
2019-04-03T14:33:10.806Z,20.33
2019-04-03T14:35:50.440Z,19.40
2019-04-03T14:38:34.233Z,19.43
2019-04-03T14:41:06.299Z,18.30
2019-04-03T14:43:56.727Z,18.53
2019-04-03T14:46:25.990Z,17.73
2019-04-03T14:48:57.767Z,17.60
2019-04-03T14:51:26.725Z,16.23
2019-04-03T14:53:56.577Z,16.87
2019-04-03T14:56:36.312Z,16.40
2019-04-03T14:59:14.025Z,16.87
2019-04-03T15:01:39.741Z,16.33
2019-04-03T15:04:22.137Z,16.13
2019-04-03T15:07:17.843Z,15.23
2019-04-03T15:09:54.330Z,15.43
2019-04-03T15:12:30.233Z,14.90
2019-04-03T15:15:12.734Z,16.40
2019-04-03T15:17:42.603Z,15.73
2019-04-03T15:20:19.188Z,15.47
2019-04-03T15:22:56.812Z,15.07
2019-04-03T15:25:51.697Z,15.50
2019-04-03T15:28:49.872Z,15.50
2019-04-03T15:31:24.395Z,16.00
2019-04-03T15:36:30.080Z,15.27
2019-04-03T15:39:23.166Z,14.57
2019-04-03T15:42:08.585Z,15.57
2019-04-03T15:44:37.698Z,15.57
2019-04-03T15:47:10.411Z,14.67
2019-04-03T15:49:48.937Z,14.70
2019-04-03T15:52:26.582Z,13.90
2019-04-03T15:55:00.063Z,12.73
2019-04-03T15:57:29.076Z,12.30
2019-04-03T16:00:02.752Z,13.47
2019-04-03T16:02:37.320Z,12.17
2019-04-03T16:05:07.442Z,11.87
2019-04-03T16:07:46.521Z,11.63
2019-04-03T16:10:21.749Z,11.40
2019-04-03T16:12:56.088Z,11.37
2019-04-03T16:15:45.978Z,10.87
2019-04-03T16:18:21.219Z,10.60
2019-04-03T16:20:50.794Z,10.90
2019-04-03T16:23:30.744Z,9.73
2019-04-03T16:25:59.772Z,10.97
2019-04-03T16:28:46.428Z,10.73
2019-04-03T16:34:40.815Z,10.23
2019-04-03T16:37:09.423Z,10.17
2019-04-03T16:42:42.008Z,10.40
2019-04-03T16:47:49.851Z,10.50
2019-04-03T16:50:20.019Z,11.13
2019-04-03T16:53:03.783Z,11.40
2019-04-03T16:55:40.384Z,11.93
2019-04-03T17:01:22.391Z,11.50
2019-04-03T17:03:53.761Z,11.57
2019-04-03T17:06:39.886Z,11.77
2019-04-03T17:09:09.738Z,12.23
2019-04-03T17:11:39.331Z,12.70
2019-04-03T17:14:13.129Z,12.37
2019-04-03T17:16:45.274Z,11.63
2019-04-03T17:22:04.030Z,13.03
2019-04-03T17:24:48.691Z,13.87
2019-04-03T17:27:19.864Z,14.23
2019-04-03T17:30:10.215Z,14.20
2019-04-03T17:32:40.242Z,15.00
2019-04-03T17:35:14.125Z,15.47
2019-04-03T17:37:49.705Z,15.47
2019-04-03T17:43:05.921Z,17.63
2019-04-03T17:45:35.061Z,18.87
2019-04-03T17:48:05.572Z,17.97
2019-04-03T17:50:38.853Z,20.97
2019-04-03T17:53:07.775Z,21.27
2019-04-03T17:56:00.942Z,20.23
2019-04-03T17:58:23.680Z,21.70
2019-04-03T18:03:31.303Z,22.10
2019-04-03T18:06:00.384Z,21.83
2019-04-03T18:11:21.078Z,21.83
2019-04-03T18:13:54.964Z,21.30
2019-04-03T18:18:56.283Z,21.63
2019-04-03T18:27:44.558Z,20.73
2019-04-03T18:31:25.725Z,20.83
2019-04-03T18:36:23.055Z,22.27
2019-04-03T18:38:52.384Z,22.17
2019-04-03T18:41:22.028Z,22.37
2019-04-03T18:43:57.374Z,21.70
2019-04-03T18:49:09.758Z,23.50
2019-04-03T18:51:44.512Z,21.67
2019-04-03T18:54:13.827Z,21.63
2019-04-03T18:56:45.602Z,23.20
2019-04-03T18:59:15.434Z,21.70
2019-04-03T19:01:44.452Z,21.27
2019-04-03T19:04:22.389Z,21.70
2019-04-03T19:06:57.089Z,20.97
2019-04-03T19:09:28.349Z,20.77
2019-04-03T19:12:08.285Z,20.50
2019-04-03T19:14:39.781Z,20.53
2019-04-03T19:17:10.424Z,21.07
2019-04-03T19:19:41.772Z,21.80
2019-04-03T19:22:19.889Z,21.70
2019-04-03T19:25:06.864Z,22.80
2019-04-03T19:27:37.916Z,22.90
2019-04-03T19:30:07.961Z,27.10
2019-04-03T19:32:44.834Z,29.67
2019-04-03T19:35:17.413Z,30.07
2019-04-03T19:37:50.130Z,28.80
2019-04-03T19:40:20.735Z,27.53
2019-04-03T19:45:30.670Z,28.80
2019-04-03T19:48:04.245Z,30.60
2019-04-03T19:50:39.449Z,30.47
2019-04-03T19:53:13.390Z,29.43
2019-04-03T19:55:54.680Z,30.27
2019-04-03T19:58:23.552Z,30.13
2019-04-03T20:03:52.581Z,31.30
2019-04-03T20:06:22.823Z,34.60
2019-04-03T20:09:17.844Z,31.33
2019-04-03T20:21:48.376Z,37.97
2019-04-03T20:27:08.665Z,43.40
2019-04-03T20:29:38.822Z,39.67
2019-04-03T20:34:50.920Z,45.53
2019-04-03T20:37:44.797Z,41.80
2019-04-03T20:40:21.921Z,44.77
2019-04-03T20:45:27.331Z,45.27
2019-04-03T20:48:20.104Z,45.13
2019-04-03T20:50:54.246Z,46.97
2019-04-03T20:53:23.600Z,47.27
2019-04-03T20:55:59.690Z,50.03
2019-04-03T20:58:55.223Z,49.40
2019-04-03T21:01:20.839Z,52.83
2019-04-03T21:03:58.803Z,53.07
2019-04-03T21:06:52.274Z,54.17
2019-04-03T21:09:29.687Z,54.00
2019-04-03T21:12:26.875Z,56.03
2019-04-03T21:15:08.154Z,56.17
2019-04-03T21:17:32.782Z,56.20
2019-04-03T21:20:01.802Z,57.67
2019-04-03T21:22:40.915Z,57.03
2019-04-03T21:25:22.074Z,59.47
2019-04-03T21:28:08.971Z,58.63
2019-04-03T21:30:50.651Z,60.33
2019-04-03T21:36:10.160Z,66.30
2019-04-03T21:38:42.275Z,67.50
2019-04-03T21:41:16.629Z,69.63
2019-04-03T21:43:49.434Z,68.17
2019-04-03T22:37:50.941Z,66.60
2019-04-03T22:40:20.613Z,66.33
2019-04-03T22:42:59.723Z,68.27
2019-04-03T22:45:29.624Z,69.03
2019-04-03T22:48:04.707Z,59.27
2019-04-03T22:56:03.668Z,63.43
2019-04-03T22:58:36.109Z,61.90
2019-04-03T23:01:05.669Z,59.90
2019-04-03T23:03:35.024Z,60.73
2019-04-03T23:06:04.597Z,57.10
2019-04-03T23:08:35.348Z,53.77
2019-04-03T23:11:10.865Z,53.00
2019-04-03T23:13:41.041Z,51.03
2019-04-03T23:16:46.865Z,48.73
2019-04-03T23:19:21.206Z,46.83
2019-04-03T23:22:08.525Z,46.83
2019-04-03T23:24:40.909Z,46.33
2019-04-03T23:27:33.934Z,44.73
2019-04-03T23:30:05.494Z,43.30
2019-04-03T23:32:36.170Z,42.13
2019-04-03T23:38:14.535Z,41.50
2019-04-03T23:40:43.561Z,40.27
2019-04-03T23:43:16.207Z,40.00
2019-04-03T23:46:15.552Z,39.37
2019-04-03T23:48:44.849Z,36.47
2019-04-03T23:51:23.483Z,37.73
2019-04-03T23:53:51.453Z,36.90
2019-04-03T23:56:20.363Z,36.87
2019-04-03T23:58:56.391Z,37.10
